createdAt,value
2018-11-22T00:00:30.976Z,0
2018-11-22T00:01:31.637Z,0
2018-11-22T00:02:32.297Z,0
2018-11-22T00:03:33.017Z,0
2018-11-22T00:04:33.672Z,0
2018-11-22T00:05:34.332Z,0
2018-11-22T00:06:34.993Z,0
2018-11-22T00:07:35.654Z,0
2018-11-22T00:08:36.365Z,0
2018-11-22T00:09:37.029Z,0
2018-11-22T00:10:37.691Z,0
2018-11-22T00:11:38.352Z,0
2018-11-22T00:12:39.070Z,0
2018-11-22T00:13:39.726Z,0
2018-11-22T00:14:40.393Z,0
2018-11-22T00:15:41.101Z,0
2018-11-22T00:16:41.813Z,0
2018-11-22T00:17:42.474Z,0
2018-11-22T00:18:43.136Z,0
2018-11-22T00:19:43.796Z,0
2018-11-22T00:20:44.469Z,0
2018-11-22T00:21:45.177Z,0
2018-11-22T00:22:45.832Z,0
2018-11-22T00:23:46.533Z,0
2018-11-22T00:24:47.190Z,0
2018-11-22T00:25:47.846Z,0
2018-11-22T00:26:48.501Z,0
2018-11-22T00:27:49.157Z,0
2018-11-22T00:28:49.811Z,0
2018-11-22T00:29:50.470Z,0
2018-11-22T00:30:51.126Z,0
2018-11-22T00:31:51.790Z,0
2018-11-22T00:32:52.439Z,0
2018-11-22T00:33:53.093Z,0
2018-11-22T00:34:53.749Z,0
2018-11-22T00:35:54.416Z,0
2018-11-22T00:36:55.062Z,0
2018-11-22T00:37:55.721Z,0
2018-11-22T00:38:56.379Z,0
2018-11-22T00:39:57.043Z,0
2018-11-22T00:40:57.694Z,0
2018-11-22T00:41:58.352Z,0
2018-11-22T00:42:59.009Z,0
2018-11-22T00:43:59.668Z,0
2018-11-22T00:45:00.328Z,0
2018-11-22T00:46:00.980Z,0
2018-11-22T00:47:01.636Z,0
2018-11-22T00:48:02.347Z,0
2018-11-22T00:49:02.998Z,0
2018-11-22T00:50:03.699Z,0
2018-11-22T00:51:04.355Z,0
2018-11-22T00:52:05.012Z,0
2018-11-22T00:53:05.712Z,0
2018-11-22T00:54:06.369Z,0
2018-11-22T00:55:07.026Z,0
2018-11-22T00:56:07.682Z,0
2018-11-22T00:57:08.348Z,0
2018-11-22T00:58:08.997Z,0
2018-11-22T00:59:09.652Z,0
2018-11-22T01:00:10.352Z,0
2018-11-22T01:01:11.009Z,0
2018-11-22T01:02:11.665Z,0
2018-11-22T01:03:12.326Z,0
2018-11-22T01:04:12.983Z,0
2018-11-22T01:05:13.639Z,0
2018-11-22T01:06:14.298Z,0
2018-11-22T01:07:14.954Z,0
2018-11-22T01:08:15.612Z,0
2018-11-22T01:09:16.273Z,0
2018-11-22T01:10:16.972Z,0
2018-11-22T01:11:17.626Z,0
2018-11-22T01:12:18.288Z,0
2018-11-22T01:13:18.982Z,0
2018-11-22T01:14:19.681Z,0
2018-11-22T01:15:20.337Z,0
2018-11-22T01:16:20.993Z,0
2018-11-22T01:17:21.651Z,0
2018-11-22T01:18:22.307Z,0
2018-11-22T01:19:22.962Z,0
2018-11-22T01:20:23.619Z,0
2018-11-22T01:21:24.274Z,0
2018-11-22T01:22:24.930Z,0
2018-11-22T01:23:25.587Z,0
2018-11-22T01:24:26.245Z,0
2018-11-22T01:25:26.901Z,0
2018-11-22T01:26:27.561Z,0
2018-11-22T01:27:28.218Z,0
2018-11-22T01:28:28.876Z,0
2018-11-22T01:29:29.532Z,0
2018-11-22T01:30:30.189Z,0
2018-11-22T01:31:30.845Z,0
2018-11-22T01:32:31.501Z,0
2018-11-22T01:33:32.157Z,0
2018-11-22T01:34:32.813Z,0
2018-11-22T01:35:33.478Z,0
2018-11-22T01:36:34.126Z,0
2018-11-22T01:37:34.783Z,0
2018-11-22T01:38:35.445Z,0
2018-11-22T01:39:36.095Z,0
2018-11-22T01:40:36.759Z,0
2018-11-22T01:41:37.407Z,0
2018-11-22T01:42:38.065Z,0
2018-11-22T01:43:38.731Z,0
2018-11-22T01:44:39.435Z,0
2018-11-22T01:45:40.084Z,0
2018-11-22T01:46:40.741Z,0
2018-11-22T01:47:41.399Z,0
2018-11-22T01:48:42.057Z,0
2018-11-22T01:49:42.722Z,0
2018-11-22T01:50:43.372Z,0
2018-11-22T01:51:44.030Z,0
2018-11-22T01:52:44.697Z,0
2018-11-22T01:53:45.343Z,0
2018-11-22T01:54:46.003Z,0
2018-11-22T01:55:46.654Z,0
2018-11-22T01:56:47.310Z,0
2018-11-22T01:57:47.969Z,0
2018-11-22T01:58:48.625Z,0
2018-11-22T01:59:49.281Z,0
2018-11-22T02:00:49.941Z,0
2018-11-22T02:01:50.594Z,0
2018-11-22T02:02:51.251Z,0
2018-11-22T02:03:51.911Z,0
2018-11-22T02:04:52.563Z,0
2018-11-22T02:05:53.220Z,0
2018-11-22T02:06:53.878Z,0
2018-11-22T02:07:54.534Z,0
2018-11-22T02:08:55.193Z,0
2018-11-22T02:09:55.896Z,0
2018-11-22T02:10:56.554Z,0
2018-11-22T02:11:57.211Z,0
2018-11-22T02:12:57.872Z,0
2018-11-22T02:13:58.524Z,0
2018-11-22T02:14:59.189Z,0
2018-11-22T02:15:59.839Z,0
2018-11-22T02:17:00.541Z,0
2018-11-22T02:18:01.198Z,0
2018-11-22T02:19:01.854Z,0
2018-11-22T02:20:02.516Z,0
2018-11-22T02:21:03.165Z,0
2018-11-22T02:22:03.826Z,0
2018-11-22T02:23:04.486Z,0
2018-11-22T02:24:05.140Z,0
2018-11-22T02:25:05.792Z,0
2018-11-22T02:26:06.448Z,0
2018-11-22T02:27:07.105Z,0
2018-11-22T02:28:07.766Z,0
2018-11-22T02:29:08.463Z,0
2018-11-22T02:30:09.127Z,0
2018-11-22T02:31:09.821Z,0
2018-11-22T02:32:10.480Z,0
2018-11-22T02:33:11.138Z,0
2018-11-22T02:34:11.797Z,0
2018-11-22T02:35:12.452Z,0
2018-11-22T02:36:13.155Z,0
2018-11-22T02:37:13.821Z,0
2018-11-22T02:38:14.470Z,0
2018-11-22T02:39:15.128Z,0
2018-11-22T02:40:15.788Z,0
2018-11-22T02:41:16.488Z,0
2018-11-22T02:42:17.145Z,0
2018-11-22T02:43:17.802Z,0
2018-11-22T02:44:18.465Z,0
2018-11-22T02:45:19.158Z,0
2018-11-22T02:46:19.815Z,0
2018-11-22T02:47:20.470Z,0
2018-11-22T02:48:21.127Z,0
2018-11-22T02:49:21.786Z,0
2018-11-22T02:50:22.440Z,0
2018-11-22T02:51:23.097Z,0
2018-11-22T02:52:23.754Z,0
2018-11-22T02:53:24.410Z,0
2018-11-22T02:54:25.066Z,0
2018-11-22T02:55:25.722Z,0
2018-11-22T02:56:26.379Z,0
2018-11-22T02:57:27.036Z,0
2018-11-22T02:58:27.693Z,0
2018-11-22T02:59:28.360Z,0
2018-11-22T03:00:29.018Z,0
2018-11-22T03:01:29.665Z,0
2018-11-22T03:02:30.323Z,0
2018-11-22T03:03:30.980Z,0
2018-11-22T03:04:31.635Z,0
2018-11-22T03:05:32.295Z,0
2018-11-22T03:06:32.948Z,0
2018-11-22T03:07:33.603Z,0
2018-11-22T03:08:34.262Z,0
2018-11-22T03:09:34.962Z,0
2018-11-22T03:10:35.618Z,0
2018-11-22T03:11:36.275Z,0
2018-11-22T03:12:36.931Z,0
2018-11-22T03:13:37.591Z,0
2018-11-22T03:14:38.244Z,0
2018-11-22T03:15:38.899Z,0
2018-11-22T03:16:39.555Z,0
2018-11-22T03:17:40.214Z,0
2018-11-22T03:18:40.869Z,0
2018-11-22T03:19:41.528Z,0
2018-11-22T03:20:42.193Z,0
2018-11-22T03:21:42.842Z,0
2018-11-22T03:22:43.498Z,0
2018-11-22T03:23:44.154Z,0
2018-11-22T03:24:44.809Z,0
2018-11-22T03:25:45.467Z,0
2018-11-22T03:26:46.164Z,0
2018-11-22T03:27:46.821Z,0
2018-11-22T03:28:47.477Z,0
2018-11-22T03:29:48.142Z,0
2018-11-22T03:30:48.808Z,0
2018-11-22T03:31:49.445Z,0
2018-11-22T03:32:50.102Z,0
2018-11-22T03:33:50.759Z,0
2018-11-22T03:34:51.414Z,0
2018-11-22T03:35:52.072Z,0
2018-11-22T03:36:52.730Z,0
2018-11-22T03:37:53.433Z,0
2018-11-22T03:38:54.090Z,0
2018-11-22T03:39:54.749Z,0
2018-11-22T03:40:55.406Z,0
2018-11-22T03:41:56.064Z,0
2018-11-22T03:42:56.772Z,0
2018-11-22T03:43:57.430Z,0
2018-11-22T03:44:58.088Z,0
2018-11-22T03:45:58.752Z,0
2018-11-22T03:46:59.402Z,0
2018-11-22T03:48:00.061Z,0
2018-11-22T03:49:00.764Z,0
2018-11-22T03:50:01.431Z,0
2018-11-22T03:51:02.125Z,0
2018-11-22T03:52:02.783Z,0
2018-11-22T03:53:03.441Z,0
2018-11-22T03:54:04.107Z,0
2018-11-22T03:55:04.756Z,0
2018-11-22T03:56:05.421Z,0
2018-11-22T03:57:06.067Z,0
2018-11-22T03:58:06.728Z,0
2018-11-22T03:59:07.421Z,0
2018-11-22T04:00:08.075Z,0
2018-11-22T04:01:08.731Z,0
2018-11-22T04:02:09.389Z,0
2018-11-22T04:03:10.048Z,0
2018-11-22T04:04:10.699Z,0
2018-11-22T04:05:11.354Z,0
2018-11-22T04:06:12.019Z,0
2018-11-22T04:07:12.667Z,0
2018-11-22T04:08:13.325Z,0
2018-11-22T04:09:14.028Z,0
2018-11-22T04:10:14.686Z,0
2018-11-22T04:11:15.351Z,0
2018-11-22T04:12:16.001Z,0
2018-11-22T04:13:16.657Z,0
2018-11-22T04:14:17.325Z,0
2018-11-22T04:15:17.969Z,0
2018-11-22T04:16:18.628Z,0
2018-11-22T04:17:19.280Z,0
2018-11-22T04:18:19.944Z,0
2018-11-22T04:19:20.636Z,0
2018-11-22T04:20:21.294Z,0
2018-11-22T04:21:21.951Z,0
2018-11-22T04:22:22.608Z,0
2018-11-22T04:23:23.264Z,0
2018-11-22T04:24:23.919Z,0
2018-11-22T04:25:24.573Z,0
2018-11-22T04:26:25.231Z,0
2018-11-22T04:27:25.889Z,0
2018-11-22T04:28:26.545Z,0
2018-11-22T04:29:27.203Z,0
2018-11-22T04:30:27.861Z,0
2018-11-22T04:31:28.518Z,0
2018-11-22T04:32:29.176Z,0
2018-11-22T04:33:29.879Z,0
2018-11-22T04:34:30.583Z,0
2018-11-22T04:35:31.241Z,0
2018-11-22T04:36:31.897Z,0
2018-11-22T04:37:32.555Z,0
2018-11-22T04:38:33.212Z,0
2018-11-22T04:39:33.869Z,0
2018-11-22T04:40:34.523Z,0
2018-11-22T04:41:35.180Z,0
2018-11-22T04:42:35.835Z,0
2018-11-22T04:43:36.491Z,0
2018-11-22T04:44:37.146Z,0
2018-11-22T04:45:37.803Z,0
2018-11-22T04:46:38.460Z,0
2018-11-22T04:47:39.117Z,0
2018-11-22T04:48:39.770Z,0
2018-11-22T04:49:40.428Z,0
2018-11-22T04:50:41.084Z,0
2018-11-22T04:51:41.745Z,0
2018-11-22T04:52:42.404Z,0
2018-11-22T04:53:43.058Z,0
2018-11-22T04:54:43.725Z,0
2018-11-22T04:55:44.373Z,0
2018-11-22T04:56:45.028Z,0
2018-11-22T04:57:45.683Z,0
2018-11-22T04:58:46.342Z,0
2018-11-22T04:59:46.994Z,0
2018-11-22T05:00:47.662Z,0
2018-11-22T05:01:48.320Z,0
2018-11-22T05:02:48.962Z,0
2018-11-22T05:03:49.619Z,0
2018-11-22T05:04:50.275Z,0
2018-11-22T05:05:50.978Z,0
2018-11-22T05:06:51.634Z,0
2018-11-22T05:07:52.289Z,0
2018-11-22T05:08:52.943Z,0
2018-11-22T05:09:53.602Z,0
2018-11-22T05:10:54.260Z,0
2018-11-22T05:11:54.959Z,0
2018-11-22T05:12:55.615Z,0
2018-11-22T05:13:56.273Z,0
2018-11-22T05:14:56.931Z,0
2018-11-22T05:15:57.589Z,0
2018-11-22T05:16:58.245Z,0
2018-11-22T05:17:58.900Z,0
2018-11-22T05:18:59.596Z,0
2018-11-22T05:20:00.255Z,0
2018-11-22T05:21:00.911Z,0
2018-11-22T05:22:01.569Z,0
2018-11-22T05:23:02.226Z,0
2018-11-22T05:24:02.937Z,0
2018-11-22T05:25:03.586Z,0
2018-11-22T05:26:04.246Z,0
2018-11-22T05:27:04.903Z,0
2018-11-22T05:28:05.600Z,0
2018-11-22T05:29:12.391Z,0
2018-11-22T05:30:06.912Z,0
2018-11-22T05:31:07.567Z,0
2018-11-22T05:32:08.224Z,0
2018-11-22T05:33:08.881Z,0
2018-11-22T05:34:09.547Z,0
2018-11-22T05:35:10.196Z,0
2018-11-22T05:36:10.853Z,0
2018-11-22T05:37:11.511Z,0
2018-11-22T05:38:12.173Z,0
2018-11-22T05:39:12.826Z,0
2018-11-22T05:40:13.483Z,0
2018-11-22T05:41:14.137Z,0
2018-11-22T05:42:14.792Z,0
2018-11-22T05:43:15.447Z,0
2018-11-22T05:44:16.103Z,0
2018-11-22T05:45:16.759Z,0
2018-11-22T05:46:17.415Z,0
2018-11-22T05:47:18.075Z,0
2018-11-22T05:48:18.774Z,0
2018-11-22T05:49:19.428Z,0
2018-11-22T05:50:20.084Z,0
2018-11-22T05:51:20.740Z,0
2018-11-22T05:52:21.400Z,0
2018-11-22T05:53:22.100Z,0
2018-11-22T05:54:22.757Z,0
2018-11-22T05:55:23.414Z,0
2018-11-22T05:56:24.072Z,0
2018-11-22T05:57:24.741Z,0
2018-11-22T05:58:25.385Z,0
2018-11-22T05:59:26.044Z,0
2018-11-22T06:00:26.699Z,0
2018-11-22T06:01:27.353Z,0
2018-11-22T06:02:28.011Z,0
2018-11-22T06:03:28.665Z,0
2018-11-22T06:04:29.321Z,0
2018-11-22T06:05:29.978Z,0
2018-11-22T06:06:30.634Z,0
2018-11-22T06:07:31.291Z,0
2018-11-22T06:08:31.946Z,0
2018-11-22T06:09:32.606Z,0
2018-11-22T06:10:33.258Z,0
2018-11-22T06:11:33.915Z,0
2018-11-22T06:12:34.575Z,0
2018-11-22T06:13:35.278Z,0
2018-11-22T06:14:35.932Z,0
2018-11-22T06:15:36.588Z,0
2018-11-22T06:16:37.247Z,0
2018-11-22T06:17:37.904Z,0
2018-11-22T06:18:38.563Z,0
2018-11-22T06:19:39.216Z,0
2018-11-22T06:20:39.872Z,0
2018-11-22T06:21:40.529Z,0
2018-11-22T06:22:41.184Z,0
2018-11-22T06:23:41.841Z,0
2018-11-22T06:24:42.498Z,0
2018-11-22T06:25:43.155Z,0
2018-11-22T06:26:43.812Z,0
2018-11-22T06:27:44.514Z,0
2018-11-22T06:28:45.170Z,0
2018-11-22T06:29:45.831Z,0
2018-11-22T06:30:46.483Z,0
2018-11-22T06:31:47.141Z,0
2018-11-22T06:32:47.797Z,0
2018-11-22T06:33:48.464Z,0
2018-11-22T06:34:49.114Z,0
2018-11-22T06:35:49.776Z,0
2018-11-22T06:36:50.431Z,0
2018-11-22T06:37:51.092Z,0
2018-11-22T06:38:51.794Z,0
2018-11-22T06:39:52.452Z,0
2018-11-22T06:40:53.111Z,0
2018-11-22T06:41:53.772Z,0
2018-11-22T06:42:54.472Z,0
2018-11-22T06:43:55.129Z,0
2018-11-22T06:44:55.787Z,0
2018-11-22T06:45:56.446Z,0
2018-11-22T06:46:57.104Z,0
2018-11-22T06:47:57.767Z,0
2018-11-22T06:48:58.422Z,0
2018-11-22T06:49:59.082Z,0
2018-11-22T06:50:59.742Z,0
2018-11-22T06:52:00.403Z,0
2018-11-22T06:53:01.059Z,0
2018-11-22T06:54:01.718Z,0
2018-11-22T06:55:02.377Z,0
2018-11-22T06:56:03.044Z,0
2018-11-22T06:57:03.695Z,0
2018-11-22T06:58:04.354Z,0
2018-11-22T06:59:05.017Z,0
2018-11-22T07:00:05.672Z,0
2018-11-22T07:01:06.332Z,0
2018-11-22T07:02:06.991Z,0
2018-11-22T07:03:07.653Z,0
2018-11-22T07:04:08.309Z,0
2018-11-22T07:05:08.968Z,0
2018-11-22T07:06:09.633Z,0
2018-11-22T07:07:10.286Z,0
2018-11-22T07:08:10.948Z,0
2018-11-22T07:09:11.603Z,0
2018-11-22T07:10:12.273Z,0
2018-11-22T07:11:12.971Z,0
2018-11-22T07:12:13.624Z,0
2018-11-22T07:13:14.284Z,0
2018-11-22T07:14:14.990Z,0
2018-11-22T07:15:15.692Z,0
2018-11-22T07:16:16.349Z,0
2018-11-22T07:17:17.006Z,5
2018-11-22T07:18:17.665Z,5
2018-11-22T07:19:18.323Z,5
2018-11-22T07:20:18.986Z,5
2018-11-22T07:21:19.641Z,5
2018-11-22T07:22:20.301Z,5
2018-11-22T07:23:21.005Z,5
2018-11-22T07:24:21.705Z,5
2018-11-22T07:25:22.364Z,5
2018-11-22T07:26:23.029Z,5
2018-11-22T07:27:23.681Z,5
2018-11-22T07:28:24.341Z,11
2018-11-22T07:29:25.001Z,11
2018-11-22T07:30:25.667Z,11
2018-11-22T07:31:26.379Z,11
2018-11-22T07:32:27.029Z,11
2018-11-22T07:33:27.690Z,11
2018-11-22T07:34:28.395Z,11
2018-11-22T07:35:29.099Z,11
2018-11-22T07:36:29.758Z,11
2018-11-22T07:37:30.416Z,5
2018-11-22T07:38:31.075Z,5
2018-11-22T07:39:31.746Z,11
2018-11-22T07:40:32.443Z,11
2018-11-22T07:41:33.098Z,11
2018-11-22T07:42:33.758Z,11
2018-11-22T07:43:34.416Z,11
2018-11-22T07:44:35.085Z,11
2018-11-22T07:45:35.787Z,11
2018-11-22T07:46:36.484Z,11
2018-11-22T07:47:37.143Z,11
2018-11-22T07:48:37.801Z,11
2018-11-22T07:49:38.506Z,11
2018-11-22T07:50:39.166Z,16
2018-11-22T07:51:39.824Z,16
2018-11-22T07:52:40.520Z,16
2018-11-22T07:53:41.196Z,16
2018-11-22T07:54:41.846Z,16
2018-11-22T07:55:42.504Z,16
2018-11-22T07:56:43.209Z,16
2018-11-22T07:57:43.860Z,16
2018-11-22T07:58:44.521Z,16
2018-11-22T07:59:45.223Z,16
2018-11-22T08:00:45.881Z,16
2018-11-22T08:01:46.541Z,22
2018-11-22T08:02:47.200Z,22
2018-11-22T08:03:47.859Z,22
2018-11-22T08:04:48.517Z,22
2018-11-22T08:05:49.176Z,22
2018-11-22T08:06:49.836Z,22
2018-11-22T08:07:50.496Z,28
2018-11-22T08:08:51.155Z,28
2018-11-22T08:09:51.815Z,22
2018-11-22T08:10:52.485Z,22
2018-11-22T08:11:53.134Z,22
2018-11-22T08:12:53.905Z,22
2018-11-22T08:13:54.454Z,22
2018-11-22T08:14:55.113Z,22
2018-11-22T08:15:55.772Z,22
2018-11-22T08:16:56.433Z,22
2018-11-22T08:17:57.091Z,22
2018-11-22T08:18:57.752Z,16
2018-11-22T08:19:58.460Z,16
2018-11-22T08:21:04.781Z,16
2018-11-22T08:21:59.776Z,16
2018-11-22T08:23:00.439Z,16
2018-11-22T08:24:01.101Z,16
2018-11-22T08:25:01.764Z,16
2018-11-22T08:26:02.425Z,16
2018-11-22T08:27:03.129Z,16
2018-11-22T08:28:03.789Z,16
2018-11-22T08:29:04.450Z,16
2018-11-22T08:30:05.110Z,16
2018-11-22T08:31:05.771Z,16
2018-11-22T08:32:06.438Z,16
2018-11-22T08:33:07.088Z,22
2018-11-22T08:34:07.754Z,22
2018-11-22T08:35:08.418Z,22
2018-11-22T08:36:09.070Z,22
2018-11-22T08:37:09.730Z,22
2018-11-22T08:38:10.392Z,22
2018-11-22T08:39:11.052Z,22
2018-11-22T08:40:11.721Z,22
2018-11-22T08:41:12.373Z,28
2018-11-22T08:42:13.033Z,22
2018-11-22T08:43:13.702Z,22
2018-11-22T08:44:14.355Z,22
2018-11-22T08:45:15.066Z,22
2018-11-22T08:46:15.727Z,22
2018-11-22T08:47:16.391Z,22
2018-11-22T08:48:17.093Z,22
2018-11-22T08:49:17.757Z,22
2018-11-22T08:50:18.426Z,22
2018-11-22T08:51:19.089Z,22
2018-11-22T08:52:19.747Z,22
2018-11-22T08:53:20.461Z,22
2018-11-22T08:54:21.110Z,28
2018-11-22T08:55:21.772Z,22
2018-11-22T08:56:22.435Z,22
2018-11-22T08:57:23.101Z,22
2018-11-22T08:58:23.766Z,22
2018-11-22T08:59:24.418Z,28
2018-11-22T09:00:25.079Z,28
2018-11-22T09:01:25.739Z,28
2018-11-22T09:02:26.399Z,28
2018-11-22T09:03:27.061Z,28
2018-11-22T09:04:41.355Z,28
2018-11-22T09:05:42.015Z,28
2018-11-22T09:06:42.676Z,28
2018-11-22T09:07:43.335Z,28
2018-11-22T09:08:43.994Z,22
2018-11-22T09:09:44.653Z,22
2018-11-22T09:10:45.312Z,22
2018-11-22T09:11:45.973Z,28
2018-11-22T09:12:46.632Z,28
2018-11-22T09:13:47.291Z,28
2018-11-22T09:14:47.954Z,33
2018-11-22T09:15:48.611Z,28
2018-11-22T09:16:49.271Z,22
2018-11-22T09:17:49.931Z,28
2018-11-22T09:18:50.591Z,28
2018-11-22T09:19:51.250Z,28
2018-11-22T09:20:51.910Z,28
2018-11-22T09:21:52.569Z,28
2018-11-22T09:22:53.230Z,28
2018-11-22T09:23:53.888Z,22
2018-11-22T09:24:54.557Z,28
2018-11-22T09:25:55.207Z,28
2018-11-22T09:26:55.866Z,28
2018-11-22T09:27:56.526Z,28
2018-11-22T09:28:57.191Z,28
2018-11-22T09:29:57.848Z,28
2018-11-22T09:30:58.508Z,28
2018-11-22T09:31:59.168Z,28
2018-11-22T09:32:59.827Z,22
2018-11-22T09:34:00.486Z,22
2018-11-22T09:35:01.162Z,28
2018-11-22T09:36:01.821Z,33
2018-11-22T09:37:02.484Z,39
2018-11-22T09:38:03.145Z,39
2018-11-22T09:39:03.806Z,33
2018-11-22T09:40:04.628Z,33
2018-11-22T09:41:05.316Z,39
2018-11-22T09:42:05.979Z,39
2018-11-22T09:43:06.634Z,33
2018-11-22T09:44:07.294Z,33
2018-11-22T09:45:07.956Z,33
2018-11-22T09:46:08.664Z,33
2018-11-22T09:47:09.372Z,33
2018-11-22T09:48:10.035Z,33
2018-11-22T09:49:10.698Z,39
2018-11-22T09:50:11.360Z,39
2018-11-22T09:51:12.072Z,45
2018-11-22T09:52:12.733Z,50
2018-11-22T09:53:13.395Z,50
2018-11-22T09:54:14.055Z,45
2018-11-22T09:55:14.718Z,39
2018-11-22T09:56:15.379Z,39
2018-11-22T09:57:16.044Z,45
2018-11-22T09:58:16.701Z,45
2018-11-22T09:59:17.457Z,45
2018-11-22T10:00:18.126Z,45
2018-11-22T10:01:18.787Z,39
2018-11-22T10:02:19.449Z,39
2018-11-22T10:03:20.110Z,39
2018-11-22T10:04:20.771Z,50
2018-11-22T10:05:21.652Z,50
2018-11-22T10:06:22.131Z,39
2018-11-22T10:07:22.791Z,33
2018-11-22T10:08:23.507Z,39
2018-11-22T10:09:24.178Z,39
2018-11-22T10:10:24.886Z,39
2018-11-22T10:11:25.549Z,39
2018-11-22T10:12:26.220Z,33
2018-11-22T10:13:26.901Z,28
2018-11-22T10:14:27.559Z,28
2018-11-22T10:15:28.238Z,33
2018-11-22T10:16:28.928Z,33
2018-11-22T10:17:29.590Z,28
2018-11-22T10:18:30.267Z,28
2018-11-22T10:19:30.913Z,28
2018-11-22T10:20:31.576Z,33
2018-11-22T10:21:32.237Z,33
2018-11-22T10:22:32.986Z,33
2018-11-22T10:23:33.698Z,28
2018-11-22T10:24:34.328Z,33
2018-11-22T10:25:34.987Z,33
2018-11-22T10:26:35.647Z,33
2018-11-22T10:27:36.311Z,33
2018-11-22T10:28:36.969Z,33
2018-11-22T10:29:37.630Z,33
2018-11-22T10:30:38.290Z,39
2018-11-22T10:31:39.031Z,33
2018-11-22T10:32:39.709Z,33
2018-11-22T10:33:40.371Z,39
2018-11-22T10:34:41.032Z,33
2018-11-22T10:35:41.693Z,33
2018-11-22T10:36:42.354Z,33
2018-11-22T10:37:43.083Z,39
2018-11-22T10:38:43.715Z,39
2018-11-22T10:39:44.375Z,33
2018-11-22T10:40:45.036Z,33
2018-11-22T10:41:45.695Z,28
2018-11-22T10:42:46.355Z,33
2018-11-22T10:43:47.017Z,39
2018-11-22T10:44:47.735Z,39
2018-11-22T10:45:48.391Z,39
2018-11-22T10:46:49.050Z,45
2018-11-22T10:47:49.712Z,45
2018-11-22T10:48:50.419Z,50
2018-11-22T10:49:51.466Z,45
2018-11-22T10:50:52.156Z,39
2018-11-22T10:51:52.817Z,45
2018-11-22T10:52:53.479Z,45
2018-11-22T10:53:54.140Z,45
2018-11-22T10:54:54.801Z,39
2018-11-22T10:55:55.462Z,39
2018-11-22T10:56:56.125Z,45
2018-11-22T10:57:56.796Z,50
2018-11-22T10:58:57.447Z,50
2018-11-22T10:59:58.108Z,50
2018-11-22T11:00:58.772Z,50
2018-11-22T11:01:59.478Z,50
2018-11-22T11:03:00.140Z,50
2018-11-22T11:04:00.829Z,50
2018-11-22T11:05:01.466Z,50
2018-11-22T11:06:02.129Z,50
2018-11-22T11:07:02.791Z,56
2018-11-22T11:08:03.452Z,56
2018-11-22T11:09:04.114Z,56
2018-11-22T11:10:04.775Z,56
2018-11-22T11:11:05.439Z,56
2018-11-22T11:12:06.108Z,50
2018-11-22T11:13:06.781Z,50
2018-11-22T11:14:07.425Z,45
2018-11-22T11:15:08.089Z,50
2018-11-22T11:16:08.749Z,50
2018-11-22T11:17:09.415Z,50
2018-11-22T11:18:10.072Z,50
2018-11-22T11:19:10.734Z,45
2018-11-22T11:20:11.394Z,50
2018-11-22T11:21:12.105Z,50
2018-11-22T11:22:12.767Z,50
2018-11-22T11:23:13.428Z,50
2018-11-22T11:24:14.091Z,45
2018-11-22T11:25:14.798Z,50
2018-11-22T11:26:15.459Z,50
2018-11-22T11:27:16.121Z,45
2018-11-22T11:28:16.782Z,45
2018-11-22T11:29:17.446Z,39
2018-11-22T11:30:18.107Z,39
2018-11-22T11:31:18.772Z,39
2018-11-22T11:32:19.431Z,39
2018-11-22T11:33:20.093Z,39
2018-11-22T11:34:20.755Z,45
2018-11-22T11:35:21.416Z,39
2018-11-22T11:36:22.087Z,39
2018-11-22T11:37:22.741Z,39
2018-11-22T11:38:23.399Z,45
2018-11-22T11:39:24.060Z,45
2018-11-22T11:40:24.721Z,45
2018-11-22T11:41:25.383Z,45
2018-11-22T11:42:26.053Z,45
2018-11-22T11:43:26.704Z,39
2018-11-22T11:44:27.365Z,39
2018-11-22T11:45:28.028Z,39
2018-11-22T11:46:28.689Z,39
2018-11-22T11:47:29.354Z,33
2018-11-22T11:48:30.013Z,33
2018-11-22T11:49:30.673Z,28
2018-11-22T11:50:31.329Z,33
2018-11-22T11:51:31.991Z,33
2018-11-22T11:52:32.648Z,33
2018-11-22T11:53:41.483Z,33
2018-11-22T11:54:34.964Z,33
2018-11-22T11:55:35.626Z,39
2018-11-22T11:56:36.290Z,39
2018-11-22T11:57:36.951Z,39
2018-11-22T11:58:37.610Z,33
2018-11-22T11:59:38.272Z,33
2018-11-22T12:00:38.930Z,33
2018-11-22T12:01:39.590Z,33
2018-11-22T12:02:40.296Z,33
2018-11-22T12:03:41.007Z,39
2018-11-22T12:04:41.668Z,39
2018-11-22T12:05:42.330Z,33
2018-11-22T12:06:42.991Z,33
2018-11-22T12:07:43.652Z,39
2018-11-22T12:08:44.312Z,39
2018-11-22T12:09:45.020Z,39
2018-11-22T12:10:45.680Z,39
2018-11-22T12:11:46.340Z,39
2018-11-22T12:12:47.000Z,39
2018-11-22T12:13:47.661Z,33
2018-11-22T12:14:48.320Z,33
2018-11-22T12:16:02.467Z,33
2018-11-22T12:17:03.179Z,33
2018-11-22T12:18:03.884Z,33
2018-11-22T12:19:04.545Z,33
2018-11-22T12:20:05.206Z,28
2018-11-22T12:21:05.866Z,33
2018-11-22T12:22:06.525Z,33
2018-11-22T12:23:07.186Z,28
2018-11-22T12:24:07.846Z,28
2018-11-22T12:25:08.506Z,28
2018-11-22T12:26:09.166Z,28
2018-11-22T12:27:09.827Z,33
2018-11-22T12:28:10.488Z,33
2018-11-22T12:29:11.147Z,33
2018-11-22T12:30:11.809Z,33
2018-11-22T12:31:12.470Z,33
2018-11-22T12:32:13.130Z,28
2018-11-22T12:33:13.790Z,28
2018-11-22T12:34:14.450Z,28
2018-11-22T12:35:15.113Z,28
2018-11-22T12:36:15.779Z,28
2018-11-22T12:37:16.441Z,28
2018-11-22T12:38:17.138Z,28
2018-11-22T12:39:17.857Z,28
2018-11-22T12:40:18.497Z,33
2018-11-22T12:41:19.172Z,33
2018-11-22T12:42:19.849Z,33
2018-11-22T12:43:20.503Z,33
2018-11-22T12:44:21.166Z,33
2018-11-22T12:45:21.882Z,33
2018-11-22T12:46:22.579Z,33
2018-11-22T12:47:23.238Z,33
2018-11-22T12:48:23.899Z,33
2018-11-22T12:49:24.559Z,39
2018-11-22T12:50:25.220Z,33
2018-11-22T12:51:25.878Z,33
2018-11-22T12:52:26.539Z,33
2018-11-22T12:53:27.246Z,33
2018-11-22T12:54:27.906Z,28
2018-11-22T12:55:28.567Z,28
2018-11-22T12:56:29.311Z,28
2018-11-22T12:57:29.920Z,22
2018-11-22T12:58:30.590Z,22
2018-11-22T12:59:31.240Z,22
2018-11-22T13:00:31.901Z,22
2018-11-22T13:01:32.561Z,22
2018-11-22T13:02:33.221Z,22
2018-11-22T13:03:33.884Z,22
2018-11-22T13:04:34.541Z,22
2018-11-22T13:05:35.201Z,16
2018-11-22T13:06:35.860Z,16
2018-11-22T13:07:36.521Z,22
2018-11-22T13:08:37.226Z,16
2018-11-22T13:09:37.890Z,16
2018-11-22T13:10:38.548Z,22
2018-11-22T13:11:39.214Z,22
2018-11-22T13:12:39.923Z,22
2018-11-22T13:13:40.571Z,22
2018-11-22T13:14:41.229Z,22
2018-11-22T13:15:41.889Z,22
2018-11-22T13:16:42.549Z,22
2018-11-22T13:17:43.210Z,22
2018-11-22T13:18:43.870Z,22
2018-11-22T13:19:44.531Z,22
2018-11-22T13:20:45.220Z,22
2018-11-22T13:21:45.898Z,16
2018-11-22T13:22:46.554Z,16
2018-11-22T13:23:47.214Z,22
2018-11-22T13:24:47.873Z,22
2018-11-22T13:25:48.534Z,16
2018-11-22T13:26:50.135Z,16
2018-11-22T13:27:50.791Z,28
2018-11-22T13:28:51.452Z,22
2018-11-22T13:29:52.157Z,16
2018-11-22T13:30:52.817Z,11
2018-11-22T13:31:53.476Z,11
2018-11-22T13:32:54.136Z,11
2018-11-22T13:33:54.829Z,11
2018-11-22T13:34:55.501Z,16
2018-11-22T13:35:56.160Z,16
2018-11-22T13:36:56.824Z,11
2018-11-22T13:37:57.479Z,16
2018-11-22T13:38:58.138Z,16
2018-11-22T13:39:58.809Z,11
2018-11-22T13:40:59.503Z,11
2018-11-22T13:42:00.162Z,11
2018-11-22T13:43:00.823Z,11
2018-11-22T13:44:01.482Z,11
2018-11-22T13:45:02.142Z,11
2018-11-22T13:46:02.801Z,11
2018-11-22T13:47:03.462Z,11
2018-11-22T13:48:04.124Z,16
2018-11-22T13:49:04.783Z,16
2018-11-22T13:50:05.445Z,11
2018-11-22T13:51:06.101Z,11
2018-11-22T13:52:06.762Z,11
2018-11-22T13:53:07.422Z,11
2018-11-22T13:54:08.085Z,11
2018-11-22T13:55:08.742Z,11
2018-11-22T13:56:09.403Z,11
2018-11-22T13:57:10.063Z,11
2018-11-22T13:58:10.769Z,11
2018-11-22T13:59:11.427Z,11
2018-11-22T14:00:12.085Z,11
2018-11-22T14:01:12.753Z,11
2018-11-22T14:02:13.404Z,11
2018-11-22T14:03:14.075Z,11
2018-11-22T14:04:14.725Z,11
2018-11-22T14:05:15.451Z,11
2018-11-22T14:06:16.198Z,11
2018-11-22T14:07:16.857Z,11
2018-11-22T14:08:17.519Z,11
2018-11-22T14:09:18.175Z,11
2018-11-22T14:10:18.835Z,16
2018-11-22T14:11:19.492Z,16
2018-11-22T14:12:20.150Z,16
2018-11-22T14:13:20.810Z,16
2018-11-22T14:14:21.470Z,11
2018-11-22T14:15:22.129Z,11
2018-11-22T14:16:22.791Z,11
2018-11-22T14:17:23.450Z,16
2018-11-22T14:18:24.110Z,11
2018-11-22T14:19:24.773Z,11
2018-11-22T14:20:25.430Z,11
2018-11-22T14:21:26.094Z,11
2018-11-22T14:22:26.751Z,11
2018-11-22T14:23:27.411Z,11
2018-11-22T14:24:28.115Z,5
2018-11-22T14:25:28.772Z,5
2018-11-22T14:26:29.430Z,5
2018-11-22T14:27:30.090Z,5
2018-11-22T14:28:30.748Z,5
2018-11-22T14:29:31.408Z,5
2018-11-22T14:30:32.067Z,5
2018-11-22T14:31:32.726Z,5
2018-11-22T14:32:33.384Z,5
2018-11-22T14:33:34.041Z,5
2018-11-22T14:34:34.699Z,5
2018-11-22T14:35:35.356Z,5
2018-11-22T14:36:36.016Z,5
2018-11-22T14:37:36.676Z,5
2018-11-22T14:38:37.333Z,5
2018-11-22T14:39:37.994Z,5
2018-11-22T14:40:38.654Z,5
2018-11-22T14:41:39.315Z,5
2018-11-22T14:42:39.974Z,5